Time;durP1;ratioP1;P1;durP2;ratioP2;P2;SDS_P1;SDS_P2;PMS_P1;PMS_P2;Temp;Humidity;BMP_temperature;BMP_pressure;BME280_temperature;BME280_humidity;BME280_pressure;Samples;Min_cycle;Max_cycle;Signal;HPM_P1;HPM_P2
2022/04/19 00:01:20;;;;;;;22.08;12.00;;;9.40;80.80;;;;;;5032627;28;20496;-60
2022/04/19 00:03:45;;;;;;;22.27;12.75;;;9.40;80.40;;;;;;5015370;28;20390;-58
2022/04/19 00:06:11;;;;;;;21.50;11.77;;;9.40;80.10;;;;;;5033699;28;20080;-59
2022/04/19 00:08:37;;;;;;;24.00;13.05;;;9.30;80.00;;;;;;5034149;28;20445;-57
2022/04/19 00:11:04;;;;;;;22.10;12.63;;;9.20;79.90;;;;;;5033437;28;20052;-58
2022/04/19 00:13:30;;;;;;;20.55;11.25;;;9.20;80.30;;;;;;5035181;28;20025;-59
2022/04/19 00:15:57;;;;;;;20.35;12.15;;;9.10;81.10;;;;;;5033585;28;20037;-60
2022/04/19 00:18:22;;;;;;;21.45;12.02;;;9.10;81.50;;;;;;5033873;28;20448;-60
2022/04/19 00:20:49;;;;;;;20.92;12.75;;;9.10;81.90;;;;;;5032941;28;20021;-58
2022/04/19 00:23:15;;;;;;;20.27;11.60;;;9.00;82.00;;;;;;5033577;28;20394;-58
2022/04/19 00:25:43;;;;;;;22.90;12.98;;;9.00;81.80;;;;;;5033314;28;20101;-60
2022/04/19 00:28:11;;;;;;;22.80;11.60;;;8.90;81.90;;;;;;5033663;28;20030;-61
2022/04/19 00:30:37;;;;;;;23.45;12.70;;;8.90;82.20;;;;;;5033258;28;20124;-62
2022/04/19 00:33:04;;;;;;;22.67;11.82;;;8.90;82.20;;;;;;5033019;28;20022;-58
2022/04/19 00:35:29;;;;;;;22.30;12.02;;;8.90;82.60;;;;;;5032921;28;20060;-62
2022/04/19 00:37:55;;;;;;;20.55;11.27;;;8.90;82.60;;;;;;5015500;28;20064;-60
2022/04/19 00:40:21;;;;;;;22.20;11.77;;;8.90;82.80;;;;;;5033112;28;20021;-62
2022/04/19 00:42:47;;;;;;;22.65;12.65;;;8.90;82.60;;;;;;5033368;28;20017;-62
2022/04/19 00:45:13;;;;;;;21.38;12.60;;;8.80;82.70;;;;;;5015289;28;20037;-60
2022/04/19 00:47:40;;;;;;;21.05;12.38;;;8.80;82.90;;;;;;5033550;28;20131;-54
2022/04/19 00:50:07;;;;;;;22.23;12.18;;;8.80;83.10;;;;;;5032775;28;20079;-58
2022/04/19 00:52:40;;;;;;;24.52;12.60;;;8.80;83.80;;;;;;5033131;28;20116;-59
2022/04/19 00:55:09;;;;;;;21.15;11.82;;;8.80;84.90;;;;;;5032780;28;20036;-57
2022/04/19 00:57:37;;;;;;;23.25;11.20;;;8.80;84.50;;;;;;5033109;28;20025;-61
2022/04/19 01:00:08;;;;;;;21.80;11.50;;;8.80;84.50;;;;;;5032794;28;20045;-61
2022/04/19 01:02:34;;;;;;;21.70;11.75;;;8.70;84.70;;;;;;5033031;28;20056;-58
2022/04/19 01:05:00;;;;;;;20.73;11.73;;;8.70;85.40;;;;;;5032623;28;20056;-59
2022/04/19 01:07:25;;;;;;;22.15;12.32;;;8.70;85.50;;;;;;5014956;28;20021;-61
2022/04/19 01:09:51;;;;;;;21.83;12.23;;;8.70;85.80;;;;;;5032208;28;20389;-59
2022/04/19 01:15:05;;;;;;;21.73;11.60;;;8.60;85.90;;;;;;5030101;28;20084;-59
2022/04/19 01:17:34;;;;;;;21.27;11.18;;;8.60;86.60;;;;;;5033073;28;20017;-60
2022/04/19 01:20:01;;;;;;;23.75;12.82;;;8.60;86.70;;;;;;5032615;28;20030;-62
2022/04/19 01:22:26;;;;;;;21.02;12.35;;;8.60;86.80;;;;;;5032894;28;20037;-61
2022/04/19 01:24:52;;;;;;;22.08;12.18;;;8.50;87.30;;;;;;5032243;28;20033;-61
2022/04/19 01:27:18;;;;;;;20.83;11.40;;;8.50;87.30;;;;;;5032681;28;20024;-63
2022/04/19 01:29:45;;;;;;;21.92;12.13;;;8.60;87.20;;;;;;5032244;28;20021;-60
2022/04/19 01:32:13;;;;;;;21.88;11.90;;;8.50;87.20;;;;;;5032797;28;20017;-58
2022/04/19 01:34:39;;;;;;;21.15;11.43;;;8.50;87.50;;;;;;5032285;28;20037;-60
2022/04/19 01:37:04;;;;;;;19.23;11.82;;;8.50;88.10;;;;;;5032538;28;20037;-58
2022/04/19 01:42:14;;;;;;;23.80;14.43;;;8.40;89.00;;;;;;5032602;28;20041;-53
2022/04/19 01:44:41;;;;;;;23.35;12.82;;;8.40;89.40;;;;;;5035763;28;20025;-60
2022/04/19 01:47:07;;;;;;;25.00;13.18;;;8.30;90.20;;;;;;5036743;28;20025;-61
2022/04/19 01:49:35;;;;;;;22.80;12.27;;;8.30;90.30;;;;;;5036260;28;20029;-61
2022/04/19 01:52:02;;;;;;;23.85;13.40;;;8.30;90.40;;;;;;5036756;28;20474;-57
2022/04/19 01:54:29;;;;;;;21.20;12.68;;;8.30;90.70;;;;;;5036102;28;20025;-61
2022/04/19 01:56:55;;;;;;;22.75;12.18;;;8.20;90.90;;;;;;5036237;28;20417;-60
2022/04/19 01:59:20;;;;;;;22.38;12.35;;;8.20;91.20;;;;;;5035967;28;20021;-57
2022/04/19 02:01:48;;;;;;;23.95;12.80;;;8.20;91.40;;;;;;5036347;28;20018;-57
2022/04/19 02:04:14;;;;;;;23.20;13.10;;;8.10;91.50;;;;;;5035694;28;20028;-62
2022/04/19 02:06:40;;;;;;;21.42;12.55;;;8.10;91.70;;;;;;5035706;28;20030;-61
2022/04/19 02:09:06;;;;;;;23.05;12.82;;;8.10;91.90;;;;;;5035915;28;20163;-60
2022/04/19 02:11:32;;;;;;;22.38;12.40;;;8.10;92.20;;;;;;5036070;28;20025;-59
2022/04/19 02:13:57;;;;;;;25.40;13.32;;;8.00;92.60;;;;;;5035548;28;20037;-60
2022/04/19 02:16:23;;;;;;;22.90;13.82;;;8.10;92.80;;;;;;5035885;28;20486;-58
2022/04/19 02:18:48;;;;;;;22.63;13.90;;;8.10;93.30;;;;;;5035568;28;20108;-58
2022/04/19 02:21:14;;;;;;;22.42;12.60;;;8.00;93.70;;;;;;5036070;28;20028;-62
2022/04/19 02:23:40;;;;;;;23.13;13.55;;;8.00;94.40;;;;;;5035938;28;20497;-60
2022/04/19 02:26:05;;;;;;;24.48;13.55;;;8.00;94.50;;;;;;5035542;28;20040;-60
2022/04/19 02:28:31;;;;;;;23.52;13.93;;;7.90;95.30;;;;;;5035872;28;20030;-59
2022/04/19 02:30:57;;;;;;;22.67;13.70;;;7.90;95.10;;;;;;5035555;28;20021;-61
2022/04/19 02:33:23;;;;;;;23.13;13.43;;;7.90;96.00;;;;;;5035673;28;20100;-60
2022/04/19 02:35:49;;;;;;;23.92;12.90;;;7.80;96.30;;;;;;5035283;28;20029;-62
2022/04/19 02:38:15;;;;;;;22.30;12.10;;;7.90;97.40;;;;;;5035634;28;20116;-63
2022/04/19 02:40:41;;;;;;;22.45;13.73;;;7.90;97.80;;;;;;5035141;28;20025;-62
2022/04/19 02:43:07;;;;;;;22.48;13.10;;;7.90;97.60;;;;;;5035496;28;20044;-57
2022/04/19 02:45:32;;;;;;;23.10;13.02;;;7.90;98.00;;;;;;5035138;28;20374;-61
2022/04/19 02:48:04;;;;;;;22.00;12.75;;;7.80;98.20;;;;;;5017235;28;20095;-60
2022/04/19 02:50:39;;;;;;;23.30;14.00;;;7.80;99.00;;;;;;5016843;28;20037;-58
2022/04/19 02:53:04;;;;;;;23.85;12.75;;;7.80;98.90;;;;;;5034728;28;20029;-61
2022/04/19 02:55:30;;;;;;;25.17;14.35;;;7.80;99.10;;;;;;5033879;28;20478;-59
2022/04/19 02:57:56;;;;;;;24.20;13.70;;;7.70;99.30;;;;;;5035438;28;20029;-63
2022/04/19 03:00:23;;;;;;;22.35;12.85;;;7.70;99.50;;;;;;5016945;28;20060;-62
2022/04/19 03:02:49;;;;;;;23.52;13.00;;;7.70;99.50;;;;;;5035024;28;20022;-60
2022/04/19 03:05:15;;;;;;;23.33;13.13;;;7.70;99.60;;;;;;5034885;28;20032;-63
2022/04/19 03:07:41;;;;;;;23.67;14.15;;;7.70;99.90;;;;;;5035036;28;20025;-60
2022/04/19 03:10:07;;;;;;;26.13;14.40;;;7.60;99.90;;;;;;5034798;28;20119;-61
2022/04/19 03:12:32;;;;;;;27.60;13.38;;;7.60;99.90;;;;;;5035102;28;20088;-61
2022/04/19 03:14:58;;;;;;;24.42;13.65;;;7.60;99.90;;;;;;5034601;28;20033;-60
2022/04/19 03:17:24;;;;;;;25.77;13.05;;;7.60;99.90;;;;;;5017068;28;20040;-62
2022/04/19 03:19:49;;;;;;;23.67;13.10;;;7.60;99.90;;;;;;5034185;28;20096;-62
2022/04/19 03:22:15;;;;;;;22.50;12.93;;;7.60;99.90;;;;;;5034447;28;20018;-60
2022/04/19 03:27:42;;;;;;;22.67;14.02;;;7.50;99.90;;;;;;5034876;28;20084;-60
2022/04/19 03:30:10;;;;;;;22.90;13.52;;;7.50;99.90;;;;;;5016909;28;20039;-61
2022/04/19 03:32:36;;;;;;;23.30;13.27;;;7.50;99.90;;;;;;5034645;28;20445;-62
2022/04/19 03:35:03;;;;;;;22.98;12.70;;;7.50;99.90;;;;;;5034039;28;20029;-59
2022/04/19 03:37:30;;;;;;;23.00;14.05;;;7.50;99.90;;;;;;5034790;28;20036;-58
2022/04/19 03:39:56;;;;;;;23.27;13.40;;;7.40;99.90;;;;;;5034146;28;20079;-57
2022/04/19 03:42:22;;;;;;;21.17;13.02;;;7.40;99.90;;;;;;5034742;28;20072;-62
2022/04/19 03:44:48;;;;;;;23.20;13.02;;;7.40;99.90;;;;;;5033441;28;20117;-60
2022/04/19 03:47:15;;;;;;;24.50;13.65;;;7.40;99.90;;;;;;5034317;28;20056;-59
2022/04/19 03:49:44;;;;;;;25.80;13.60;;;7.40;99.90;;;;;;5033761;28;20061;-56
2022/04/19 03:52:10;;;;;;;22.92;13.30;;;7.40;99.90;;;;;;5034192;28;20045;-59
2022/04/19 03:54:37;;;;;;;21.05;12.40;;;7.40;99.90;;;;;;5033763;28;20025;-60
2022/04/19 03:57:04;;;;;;;21.55;13.05;;;7.50;99.90;;;;;;5034082;28;20029;-60
2022/04/19 03:59:31;;;;;;;23.80;14.15;;;7.50;99.90;;;;;;5033810;28;20025;-61
2022/04/19 04:01:57;;;;;;;23.67;12.77;;;7.50;99.90;;;;;;5033943;28;20021;-62
2022/04/19 04:04:22;;;;;;;23.48;12.65;;;7.40;99.90;;;;;;5033680;28;20026;-62
2022/04/19 04:06:48;;;;;;;23.08;13.10;;;7.40;99.90;;;;;;5033701;28;20474;-57
2022/04/19 04:09:14;;;;;;;22.30;13.35;;;7.40;99.90;;;;;;5033556;28;20029;-60
2022/04/19 04:11:39;;;;;;;22.55;13.00;;;7.40;99.90;;;;;;5033769;28;20033;-57
2022/04/19 04:14:05;;;;;;;25.13;13.90;;;7.40;99.90;;;;;;5033356;28;20069;-62
2022/04/19 04:16:30;;;;;;;24.23;14.50;;;7.40;99.90;;;;;;5033635;28;20025;-58
2022/04/19 04:18:56;;;;;;;23.38;13.57;;;7.40;99.90;;;;;;5033254;28;20022;-60
2022/04/19 04:21:22;;;;;;;23.00;14.25;;;7.40;99.90;;;;;;5016159;28;20021;-57
2022/04/19 04:23:47;;;;;;;23.05;13.90;;;7.40;99.90;;;;;;5033414;28;20028;-63
2022/04/19 04:26:13;;;;;;;24.42;14.23;;;7.40;99.90;;;;;;5031627;28;20025;-63
2022/04/19 04:28:38;;;;;;;22.40;13.77;;;7.40;99.90;;;;;;5032755;28;20029;-59
2022/04/19 04:31:06;;;;;;;24.65;14.43;;;7.40;99.90;;;;;;5032711;28;20074;-62
2022/04/19 04:33:31;;;;;;;24.10;14.70;;;7.40;99.90;;;;;;5015447;28;20036;-58
2022/04/19 04:35:58;;;;;;;25.10;15.32;;;7.40;99.90;;;;;;5032815;28;20029;-58
2022/04/19 04:38:23;;;;;;;24.23;14.35;;;7.40;99.90;;;;;;5033051;28;20021;-59
2022/04/19 04:40:49;;;;;;;22.70;13.68;;;7.40;99.90;;;;;;5032902;28;20029;-62
2022/04/19 04:43:14;;;;;;;26.48;12.90;;;7.40;99.90;;;;;;5033105;28;20040;-59
2022/04/19 04:45:40;;;;;;;30.20;14.05;;;7.40;99.90;;;;;;5014807;28;20112;-60
2022/04/19 04:50:50;;;;;;;27.13;13.10;;;7.60;99.90;;;;;;5033109;28;20060;-60
2022/04/19 04:53:15;;;;;;;21.05;12.88;;;7.70;99.90;;;;;;5032537;28;20021;-62
2022/04/19 04:55:41;;;;;;;23.02;12.18;;;7.90;99.90;;;;;;5032479;28;20029;-59
2022/04/19 04:58:09;;;;;;;23.48;12.98;;;8.00;99.90;;;;;;5032677;28;20029;-59
2022/04/19 05:00:34;;;;;;;23.53;12.53;;;8.10;99.90;;;;;;5014665;28;20017;-60
2022/04/19 05:03:00;;;;;;;23.92;13.80;;;8.10;99.90;;;;;;5032885;28;20330;-59
2022/04/19 05:05:25;;;;;;;22.00;12.73;;;8.10;99.90;;;;;;5032412;28;20109;-59
2022/04/19 05:07:51;;;;;;;21.83;12.93;;;8.00;99.90;;;;;;5032711;28;20022;-61
2022/04/19 05:10:17;;;;;;;24.23;13.02;;;8.00;99.90;;;;;;5032330;28;20079;-57
2022/04/19 05:12:42;;;;;;;24.85;14.90;;;8.00;99.90;;;;;;5032461;28;20125;-61
2022/04/19 05:15:09;;;;;;;21.75;12.93;;;8.00;99.90;;;;;;5031843;28;20022;-60
2022/04/19 05:17:35;;;;;;;22.40;12.57;;;7.90;99.90;;;;;;5031800;28;20087;-61
2022/04/19 05:20:00;;;;;;;20.60;12.93;;;7.90;99.90;;;;;;5031821;28;20105;-60
2022/04/19 05:22:26;;;;;;;24.85;14.13;;;7.90;99.90;;;;;;5031996;28;20101;-60
2022/04/19 05:24:52;;;;;;;22.52;14.20;;;7.90;99.90;;;;;;5031699;28;20030;-59
2022/04/19 05:27:17;;;;;;;22.60;12.65;;;8.00;99.90;;;;;;5032302;28;20017;-60
2022/04/19 05:29:43;;;;;;;22.80;13.65;;;8.00;99.90;;;;;;5031925;28;20416;-61
2022/04/19 05:32:09;;;;;;;21.95;14.90;;;8.00;99.90;;;;;;5032348;28;20113;-61
2022/04/19 05:34:34;;;;;;;22.92;13.02;;;8.10;99.90;;;;;;5031723;28;20063;-60
2022/04/19 05:37:00;;;;;;;24.15;13.25;;;8.20;99.90;;;;;;5031628;28;20521;-60
2022/04/19 05:39:26;;;;;;;25.45;14.45;;;8.30;99.90;;;;;;5014322;28;20068;-61
2022/04/19 05:41:51;;;;;;;20.83;13.50;;;8.40;99.90;;;;;;5032410;28;20437;-59
2022/04/19 05:44:17;;;;;;;29.75;14.93;;;8.50;99.90;;;;;;5014484;28;20112;-61
2022/04/19 05:46:42;;;;;;;24.85;13.30;;;8.60;99.90;;;;;;5032387;28;20030;-60
2022/04/19 05:49:08;;;;;;;26.60;14.02;;;8.70;99.90;;;;;;5031782;28;20025;-57
2022/04/19 05:51:34;;;;;;;25.88;14.30;;;8.80;99.90;;;;;;5032152;28;20075;-60
2022/04/19 05:54:00;;;;;;;21.95;13.65;;;8.90;99.90;;;;;;5014117;28;20076;-63
2022/04/19 05:56:25;;;;;;;22.63;14.43;;;9.00;99.90;;;;;;5031196;28;20029;-63
2022/04/19 05:58:51;;;;;;;25.67;14.05;;;9.10;99.90;;;;;;5014303;28;20068;-60
2022/04/19 06:01:18;;;;;;;22.75;13.48;;;9.20;99.90;;;;;;5032323;28;20049;-61
2022/04/19 06:06:28;;;;;;;23.90;13.10;;;9.30;99.90;;;;;;5032163;28;20079;-61
2022/04/19 06:08:53;;;;;;;24.15;13.23;;;9.40;99.90;;;;;;5031664;28;20033;-59
2022/04/19 06:11:19;;;;;;;21.83;12.82;;;9.50;99.70;;;;;;5032064;28;20056;-61
2022/04/19 06:13:45;;;;;;;23.20;13.18;;;9.60;99.30;;;;;;5033330;28;20025;-58
2022/04/19 06:16:11;;;;;;;22.95;13.38;;;9.60;99.20;;;;;;5031834;28;20029;-62
2022/04/19 06:18:36;;;;;;;25.10;14.85;;;9.70;99.20;;;;;;5032069;28;20026;-63
2022/04/19 06:21:04;;;;;;;26.10;14.60;;;9.80;98.90;;;;;;5031759;28;20030;-59
2022/04/19 06:23:31;;;;;;;23.88;14.25;;;9.90;98.70;;;;;;5031997;28;20436;-61
2022/04/19 06:25:56;;;;;;;22.38;13.55;;;10.00;98.70;;;;;;5031449;28;20149;-60
2022/04/19 06:28:22;;;;;;;21.70;13.82;;;10.10;98.70;;;;;;5032175;28;20029;-59
2022/04/19 06:30:48;;;;;;;30.27;16.70;;;10.20;98.20;;;;;;5034835;28;20481;-59
2022/04/19 06:33:14;;;;;;;23.63;13.77;;;10.30;98.30;;;;;;5017821;28;20033;-59
2022/04/19 06:35:39;;;;;;;21.33;13.48;;;10.40;97.70;;;;;;5036225;28;20388;-62
2022/04/19 06:38:05;;;;;;;22.35;13.73;;;10.50;97.20;;;;;;5035835;28;20370;-63
2022/04/19 06:40:32;;;;;;;24.15;13.13;;;10.60;96.70;;;;;;5035489;28;20022;-61
2022/04/19 06:42:57;;;;;;;23.33;13.45;;;10.70;96.60;;;;;;5034899;28;20026;-60
2022/04/19 06:45:24;;;;;;;22.60;13.10;;;10.80;96.30;;;;;;5034826;28;20036;-57
2022/04/19 06:48:02;;;;;;;20.30;12.50;;;10.90;96.00;;;;;;5035200;28;20025;-60
2022/04/19 06:50:28;;;;;;;21.92;13.18;;;11.00;96.00;;;;;;5035265;28;20513;-62
2022/04/19 06:52:54;;;;;;;23.35;12.23;;;11.10;95.40;;;;;;5035167;28;20048;-59
2022/04/19 06:55:20;;;;;;;21.17;12.15;;;11.20;95.20;;;;;;5034772;28;20105;-62
2022/04/19 06:57:49;;;;;;;23.27;13.18;;;11.30;94.70;;;;;;5035038;28;20034;-60
2022/04/19 07:00:17;;;;;;;21.95;13.45;;;11.30;94.40;;;;;;5034778;28;20095;-62
2022/04/19 07:02:44;;;;;;;22.27;13.82;;;11.40;94.20;;;;;;5034928;28;20025;-59
2022/04/19 07:05:10;;;;;;;20.98;12.85;;;11.50;94.10;;;;;;5034408;28;20396;-60
2022/04/19 07:07:39;;;;;;;24.58;13.07;;;11.60;93.90;;;;;;5034948;28;20056;-58
2022/04/19 07:10:06;;;;;;;22.15;13.30;;;11.70;94.10;;;;;;5034576;28;20043;-60
2022/04/19 07:12:32;;;;;;;21.33;13.50;;;11.80;93.80;;;;;;5017223;28;20378;-60
2022/04/19 07:14:58;;;;;;;20.92;12.80;;;11.80;94.00;;;;;;5015971;28;20124;-61
2022/04/19 07:17:23;;;;;;;21.42;12.63;;;11.90;93.60;;;;;;5035130;28;20022;-60
2022/04/19 07:28:20;;;;;;;20.95;13.07;;;12.30;92.70;;;;;;5000884;28;20030;-63
2022/04/19 07:30:46;;;;;;;21.65;13.65;;;12.40;92.70;;;;;;5034236;28;20034;-61
2022/04/19 07:33:12;;;;;;;20.05;12.73;;;12.50;92.20;;;;;;5034343;28;20026;-60
2022/04/19 07:35:37;;;;;;;21.80;12.63;;;12.60;92.20;;;;;;5034064;28;20367;-58
2022/04/19 07:38:03;;;;;;;22.00;13.43;;;12.80;91.90;;;;;;5034289;28;20021;-58
2022/04/19 07:40:29;;;;;;;19.48;11.52;;;12.80;91.80;;;;;;5033439;28;20030;-59
2022/04/19 07:42:55;;;;;;;26.52;13.65;;;12.90;91.00;;;;;;5034152;28;20033;-59
2022/04/19 07:45:20;;;;;;;22.88;12.85;;;12.90;90.70;;;;;;5033767;28;20009;-56
2022/04/19 07:47:47;;;;;;;21.15;12.43;;;13.00;90.20;;;;;;5034143;28;20102;-62
2022/04/19 07:50:12;;;;;;;23.35;12.52;;;13.10;90.00;;;;;;5033559;28;20029;-61
2022/04/19 07:52:38;;;;;;;22.00;13.18;;;13.20;89.80;;;;;;5033524;28;20021;-60
2022/04/19 07:55:04;;;;;;;22.08;12.88;;;13.30;90.00;;;;;;5033692;28;20056;-60
2022/04/19 07:57:29;;;;;;;21.30;12.27;;;13.40;89.10;;;;;;5034325;28;20032;-59
2022/04/19 07:59:55;;;;;;;22.60;12.80;;;13.50;87.70;;;;;;5016017;28;20083;-61
2022/04/19 08:02:21;;;;;;;22.05;13.00;;;13.60;88.20;;;;;;5033819;28;20072;-60
2022/04/19 08:04:46;;;;;;;20.00;13.02;;;13.60;88.70;;;;;;5033944;28;20641;-59
2022/04/19 08:07:12;;;;;;;21.60;12.63;;;13.70;87.10;;;;;;5033877;28;20370;-60
2022/04/19 08:09:39;;;;;;;21.23;13.50;;;13.70;87.10;;;;;;5041459;28;20036;-62
2022/04/19 08:12:05;;;;;;;21.63;13.98;;;13.80;86.10;;;;;;5053701;28;20025;-61
2022/04/19 08:14:31;;;;;;;21.50;13.20;;;13.90;87.00;;;;;;5053244;28;20037;-62
2022/04/19 08:16:57;;;;;;;20.60;13.07;;;14.00;86.80;;;;;;5035715;28;20021;-63
2022/04/19 08:19:23;;;;;;;22.15;13.30;;;14.00;85.70;;;;;;5053375;28;20031;-62
2022/04/19 08:21:49;;;;;;;21.05;12.32;;;14.10;84.60;;;;;;5053208;28;20154;-61
2022/04/19 08:24:14;;;;;;;23.10;12.68;;;14.10;84.00;;;;;;5053006;28;20056;-59
2022/04/19 08:26:40;;;;;;;19.92;12.77;;;14.10;84.60;;;;;;5035969;28;20033;-63
2022/04/19 08:29:07;;;;;;;22.00;13.15;;;14.20;85.00;;;;;;5053376;28;20029;-64
2022/04/19 08:31:34;;;;;;;60.47;45.22;;;14.30;84.90;;;;;;5053039;28;20036;-64
2022/04/19 08:34:00;;;;;;;28.65;14.27;;;14.40;83.90;;;;;;5052862;28;20055;-66
2022/04/19 08:36:26;;;;;;;20.38;12.73;;;14.40;82.20;;;;;;5047186;28;20036;-65
2022/04/19 08:38:51;;;;;;;19.75;11.80;;;14.50;83.00;;;;;;5040046;28;20017;-66
2022/04/19 08:41:20;;;;;;;19.50;12.13;;;14.60;82.30;;;;;;5041034;28;20128;-67
2022/04/19 08:43:46;;;;;;;19.63;11.90;;;14.60;82.60;;;;;;5044432;28;20079;-65
2022/04/19 08:46:14;;;;;;;22.23;12.65;;;14.50;82.50;;;;;;5042267;28;20096;-64
2022/04/19 08:48:47;;;;;;;19.63;11.63;;;14.50;83.20;;;;;;5041552;28;20029;-65
2022/04/19 08:51:16;;;;;;;19.05;11.50;;;14.70;83.30;;;;;;5043806;28;20028;-64
2022/04/19 08:59:09;;;;;;;19.65;12.27;;;14.90;83.10;;;;;;5042617;28;20056;-66
2022/04/19 09:01:35;;;;;;;21.42;12.48;;;15.00;83.50;;;;;;5033906;28;20057;-65
2022/04/19 09:04:04;;;;;;;19.35;12.20;;;15.10;82.40;;;;;;5032277;28;20026;-65
2022/04/19 09:06:53;;;;;;;20.90;12.65;;;15.00;81.20;;;;;;5032923;28;20052;-66
2022/04/19 09:09:24;;;;;;;23.25;12.27;;;15.10;82.00;;;;;;5032495;28;20028;-65
2022/04/19 09:11:55;;;;;;;19.00;12.05;;;15.10;82.40;;;;;;5050111;28;20021;-66
2022/04/19 09:14:23;;;;;;;19.85;12.10;;;14.90;82.60;;;;;;5048625;28;20536;-66
2022/04/19 09:17:05;;;;;;;19.70;12.27;;;14.80;83.10;;;;;;5034355;28;20033;-66
2022/04/19 09:19:31;;;;;;;20.80;13.25;;;14.60;82.90;;;;;;5022818;28;20030;-66
2022/04/19 09:21:57;;;;;;;19.98;12.93;;;14.50;84.30;;;;;;5041673;28;20505;-65
2022/04/19 09:24:25;;;;;;;23.35;13.65;;;14.50;84.20;;;;;;5028349;28;20013;-65
2022/04/19 09:26:51;;;;;;;19.33;12.17;;;14.70;86.60;;;;;;5041409;28;20026;-66
2022/04/19 09:29:21;;;;;;;19.23;12.43;;;14.90;85.00;;;;;;5043256;28;20031;-66
2022/04/19 09:31:49;;;;;;;20.23;13.02;;;15.20;83.50;;;;;;5043195;28;20452;-64
2022/04/19 09:34:26;;;;;;;;;;;15.50;83.80;;;;;;5041877;28;20112;-65
2022/04/19 09:36:53;;;;;;;20.05;13.00;;;15.70;83.20;;;;;;5031186;28;19912;-66
2022/04/19 09:39:26;;;;;;;22.85;12.88;;;15.60;81.30;;;;;;5031954;28;20477;-63
2022/04/19 09:42:04;;;;;;;19.02;12.02;;;15.70;82.20;;;;;;5032379;28;20025;-68
2022/04/19 09:44:30;;;;;;;19.40;12.37;;;15.80;81.70;;;;;;5037223;28;20020;-66
2022/04/19 09:47:07;;;;;;;19.70;13.07;;;15.90;81.10;;;;;;5052128;28;20056;-66
2022/04/19 09:49:48;;;;;;;20.30;11.73;;;16.00;81.80;;;;;;5035156;28;20029;-66
2022/04/19 09:52:20;;;;;;;20.27;12.85;;;16.10;79.90;;;;;;5032349;28;20026;-66
2022/04/19 09:54:59;;;;;;;17.75;10.95;;;16.10;79.50;;;;;;5031869;28;20028;-66
2022/04/19 09:57:25;;;;;;;18.48;11.60;;;16.10;78.90;;;;;;5032504;28;20072;-67
2022/04/19 09:59:52;;;;;;;18.17;10.77;;;16.20;79.80;;;;;;5032049;28;20021;-64
2022/04/19 10:10:33;;;;;;;16.70;10.90;;;15.70;77.10;;;;;;5041911;28;20031;-67
2022/04/19 10:12:59;;;;;;;19.25;12.10;;;15.70;77.80;;;;;;5055668;28;20021;-67
2022/04/19 10:15:25;;;;;;;18.95;11.82;;;15.90;79.10;;;;;;5055777;28;20028;-67
2022/04/19 10:17:50;;;;;;;19.23;11.50;;;16.10;80.10;;;;;;5056725;28;20083;-65
2022/04/19 10:20:27;;;;;;;18.98;12.50;;;16.40;80.00;;;;;;5055591;28;20535;-69
2022/04/19 10:22:54;;;;;;;17.70;11.07;;;16.50;78.80;;;;;;5055425;28;20066;-66
2022/04/19 10:25:20;;;;;;;21.30;10.80;;;16.60;79.10;;;;;;5055097;28;20493;-66
2022/04/19 10:27:49;;;;;;;33.25;23.58;;;16.80;77.00;;;;;;5055235;28;20021;-64
2022/04/19 10:30:20;;;;;;;22.50;15.52;;;17.10;76.90;;;;;;5054607;28;20021;-62
2022/04/19 10:32:46;;;;;;;16.65;11.35;;;17.20;76.20;;;;;;5055183;28;20028;-68
2022/04/19 10:35:13;;;;;;;19.58;10.50;;;17.20;73.10;;;;;;5055195;28;20068;-66
2022/04/19 10:37:39;;;;;;;16.92;10.40;;;17.00;72.60;;;;;;5055085;28;20523;-67
2022/04/19 10:40:10;;;;;;;17.10;10.80;;;16.90;70.60;;;;;;5055320;28;20029;-67
2022/04/19 10:42:42;;;;;;;20.83;11.07;;;16.70;71.70;;;;;;5056011;28;20033;-69
2022/04/19 10:45:14;;;;;;;17.08;11.10;;;16.90;74.10;;;;;;5056960;28;20017;-67
2022/04/19 10:47:53;;;;;;;16.90;10.73;;;17.00;73.60;;;;;;5055857;28;20115;-69
2022/04/19 10:50:29;;;;;;;17.95;10.63;;;17.10;72.90;;;;;;5055262;28;20013;-69
2022/04/19 10:53:05;;;;;;;16.30;11.60;;;17.10;73.30;;;;;;5037368;28;20029;-68
2022/04/19 10:55:32;;;;;;;17.75;11.23;;;17.40;72.60;;;;;;5054643;28;20033;-68
2022/04/19 10:58:16;;;;;;;16.60;11.02;;;17.50;71.90;;;;;;5055430;28;20049;-67
2022/04/19 11:00:42;;;;;;;17.25;10.85;;;17.50;70.00;;;;;;5055122;28;20021;-65
2022/04/19 11:03:18;;;;;;;16.55;11.05;;;17.20;69.50;;;;;;5055467;28;20029;-68
2022/04/19 11:05:55;;;;;;;16.38;11.10;;;17.10;70.10;;;;;;5057225;28;20097;-67
2022/04/19 11:08:29;;;;;;;15.77;10.30;;;17.20;71.50;;;;;;5055158;28;20040;-64
2022/04/19 11:10:55;;;;;;;32.78;24.20;;;17.50;71.00;;;;;;5054350;28;20445;-63
2022/04/19 11:13:27;;;;;;;16.27;10.43;;;18.60;69.70;;;;;;5054650;28;20036;-68
2022/04/19 11:15:57;;;;;;;17.42;10.80;;;19.50;66.70;;;;;;5053360;28;20517;-68
2022/04/19 11:18:24;;;;;;;16.65;10.30;;;19.90;64.60;;;;;;5054791;28;20028;-68
2022/04/19 11:20:54;;;;;;;16.50;10.47;;;20.70;63.20;;;;;;4698948;28;9999986;-68
2022/04/19 11:23:22;;;;;;;16.05;10.45;;;21.10;61.40;;;;;;5047114;28;20017;-67
2022/04/19 11:25:49;;;;;;;20.33;10.63;;;21.50;61.10;;;;;;5025158;28;20071;-68
2022/04/19 11:28:30;;;;;;;16.58;10.60;;;21.60;62.50;;;;;;5048429;28;20052;-68
2022/04/19 11:30:55;;;;;;;16.27;10.50;;;21.70;59.70;;;;;;5041955;28;20108;-67
2022/04/19 11:33:22;;;;;;;14.95;9.90;;;22.40;59.50;;;;;;5036471;28;20184;-67
2022/04/19 11:36:00;;;;;;;15.30;10.07;;;22.90;58.80;;;;;;5024318;28;20033;-69
2022/04/19 11:38:27;;;;;;;15.38;10.38;;;23.20;57.80;;;;;;5038801;28;20080;-67
2022/04/19 11:49:09;;;;;;;16.58;10.65;;;21.80;56.90;;;;;;5045336;28;20067;-66
2022/04/19 11:51:35;;;;;;;16.13;10.63;;;23.20;57.50;;;;;;5051615;28;20024;-67
2022/04/19 11:54:02;;;;;;;17.02;10.43;;;23.70;55.40;;;;;;5025721;28;21450;-67
2022/04/19 11:56:29;;;;;;;15.27;10.40;;;23.30;52.00;;;;;;4693731;28;9999710;-66
2022/04/19 11:59:01;;;;;;;15.50;10.50;;;22.70;54.10;;;;;;5032374;28;20037;-67
2022/04/19 12:01:30;;;;;;;16.60;10.45;;;23.40;53.90;;;;;;5046217;28;20040;-67
2022/04/19 12:03:56;;;;;;;16.73;10.45;;;24.00;53.80;;;;;;5041754;28;20481;-67
2022/04/19 12:06:22;;;;;;;16.48;10.30;;;24.20;53.10;;;;;;5012763;28;20061;-68
2022/04/19 12:08:53;;;;;;;14.90;10.32;;;24.90;51.10;;;;;;5030415;28;20087;-68
2022/04/19 12:11:28;;;;;;;16.33;11.85;;;25.00;50.60;;;;;;5042016;28;20057;-65
2022/04/19 12:13:54;;;;;;;16.80;10.27;;;25.20;49.30;;;;;;5053976;23;20470;-60
2022/04/19 12:16:30;;;;;;;15.25;10.55;;;25.00;49.30;;;;;;5057138;28;20079;-61
2022/04/19 12:18:58;;;;;;;15.43;10.57;;;24.80;49.80;;;;;;5032794;28;20028;-62
2022/04/19 12:21:43;;;;;;;15.10;10.48;;;26.20;50.60;;;;;;5057164;28;20024;-61
2022/04/19 12:24:20;;;;;;;17.58;10.68;;;25.80;49.30;;;;;;5055681;28;20013;-62
2022/04/19 12:27:04;;;;;;;16.30;11.30;;;26.30;48.80;;;;;;5056090;28;20409;-59
2022/04/19 12:29:30;;;;;;;15.00;10.02;;;26.30;48.20;;;;;;5054027;28;20104;-60
2022/04/19 12:32:00;;;;;;;16.98;10.32;;;26.70;47.60;;;;;;5021365;28;20169;-61
2022/04/19 12:34:37;;;;;;;14.65;10.30;;;26.20;46.30;;;;;;5035767;28;20036;-59
2022/04/19 12:37:08;;;;;;;15.35;9.95;;;24.90;47.60;;;;;;5038733;28;20030;-61
2022/04/19 12:39:34;;;;;;;16.08;10.70;;;25.40;48.10;;;;;;5036542;28;20512;-61
2022/04/19 12:42:09;;;;;;;15.65;10.50;;;24.40;47.30;;;;;;5036934;28;20025;-59
2022/04/19 12:44:36;;;;;;;15.07;10.05;;;24.80;47.80;;;;;;5029816;28;20043;-60
2022/04/19 12:47:16;;;;;;;14.90;10.35;;;26.10;47.20;;;;;;5029627;28;20048;-62
2022/04/19 12:49:44;;;;;;;16.08;10.80;;;26.40;45.30;;;;;;5029907;28;20051;-60
2022/04/19 12:52:11;;;;;;;14.90;11.07;;;26.20;45.20;;;;;;5031322;28;20026;-60
2022/04/19 12:54:39;;;;;;;15.85;10.07;;;26.30;43.40;;;;;;5013092;28;20059;-62
2022/04/19 12:57:11;;;;;;;16.02;10.70;;;26.60;43.80;;;;;;5031235;28;20390;-60
2022/04/19 12:59:37;;;;;;;18.98;11.00;;;26.90;43.90;;;;;;5030743;28;20095;-61
2022/04/19 13:02:03;;;;;;;15.70;10.65;;;26.50;43.30;;;;;;5030947;28;20474;-59
2022/04/19 13:04:28;;;;;;;14.55;10.10;;;26.20;42.50;;;;;;5030168;28;20140;-59
2022/04/19 13:12:28;;;;;;;17.35;10.65;;;27.50;41.90;;;;;;5030857;28;20040;-59
2022/04/19 13:14:58;;;;;;;15.98;11.50;;;26.70;41.70;;;;;;5028783;28;20041;-64
2022/04/19 13:17:31;;;;;;;16.02;11.13;;;25.60;43.50;;;;;;5030828;28;20030;-62
2022/04/19 13:19:57;;;;;;;15.90;10.80;;;26.20;41.90;;;;;;5029159;28;20017;-62
2022/04/19 13:22:23;;;;;;;15.30;10.80;;;26.70;41.70;;;;;;5028764;28;20022;-62
2022/04/19 13:24:50;;;;;;;15.90;11.23;;;27.30;41.30;;;;;;5028196;28;20029;-61